createdAt,value
2019-05-20T00:01:48.180Z,8.50
2019-05-20T00:04:15.839Z,9.00
2019-05-20T00:06:43.551Z,9.30
2019-05-20T00:09:12.329Z,9.00
2019-05-20T00:11:41.175Z,8.27
2019-05-20T00:14:08.713Z,8.43
2019-05-20T00:16:36.363Z,9.13
2019-05-20T00:19:03.949Z,9.20
2019-05-20T00:21:31.623Z,9.17
2019-05-20T00:23:59.233Z,8.13
2019-05-20T00:26:26.878Z,8.50
2019-05-20T00:28:54.648Z,8.20
2019-05-20T00:31:22.326Z,8.67
2019-05-20T00:33:49.941Z,9.07
2019-05-20T00:36:17.568Z,8.77
2019-05-20T00:38:48.652Z,8.17
2019-05-20T00:41:16.267Z,8.60
2019-05-20T00:43:43.923Z,8.47
2019-05-20T00:46:11.587Z,8.30
2019-05-20T00:48:39.218Z,8.37
2019-05-20T00:51:06.852Z,8.30
2019-05-20T00:53:34.653Z,8.37
2019-05-20T00:56:02.198Z,10.13
2019-05-20T00:58:31.624Z,9.30
2019-05-20T01:00:59.274Z,9.30
2019-05-20T01:03:26.993Z,8.93
2019-05-20T01:05:54.620Z,8.83
2019-05-20T01:08:22.290Z,8.70
2019-05-20T01:10:52.610Z,8.73
2019-05-20T01:13:20.324Z,9.07
2019-05-20T01:15:49.842Z,8.77
2019-05-20T01:18:20.633Z,9.10
2019-05-20T01:20:48.483Z,9.63
2019-05-20T01:23:16.513Z,8.90
2019-05-20T01:25:44.250Z,10.63
2019-05-20T01:28:11.832Z,10.20
2019-05-20T01:30:41.380Z,9.43
2019-05-20T01:33:13.950Z,9.20
2019-05-20T01:35:38.408Z,9.63
2019-05-20T01:38:06.106Z,9.33
2019-05-20T01:40:33.744Z,8.43
2019-05-20T01:43:01.464Z,9.63
2019-05-20T01:45:30.247Z,9.37
2019-05-20T01:47:57.874Z,8.87
2019-05-20T01:50:25.498Z,9.77
2019-05-20T01:52:53.373Z,9.00
2019-05-20T01:55:22.127Z,9.67
2019-05-20T01:57:49.762Z,8.83
2019-05-20T02:00:19.260Z,8.13
2019-05-20T02:02:46.901Z,9.30
2019-05-20T02:05:14.534Z,8.53
2019-05-20T02:07:42.176Z,9.37
2019-05-20T02:10:10.088Z,9.73
2019-05-20T02:12:37.740Z,9.30
2019-05-20T02:15:18.681Z,9.70
2019-05-20T02:17:46.429Z,8.60
2019-05-20T02:20:14.164Z,9.53
2019-05-20T02:22:41.884Z,9.57
2019-05-20T02:25:09.661Z,9.20
2019-05-20T02:27:37.267Z,8.47
2019-05-20T02:30:05.341Z,9.57
2019-05-20T02:32:32.979Z,8.83
2019-05-20T02:35:00.718Z,9.80
2019-05-20T02:37:29.452Z,9.63
2019-05-20T02:39:57.082Z,9.70
2019-05-20T02:42:24.689Z,9.63
2019-05-20T02:44:52.545Z,9.43
2019-05-20T02:47:20.137Z,8.67
2019-05-20T02:49:47.902Z,8.23
2019-05-20T02:52:15.517Z,8.97
2019-05-20T02:54:43.984Z,8.13
2019-05-20T02:57:11.902Z,8.93
2019-05-20T02:59:39.554Z,8.47
2019-05-20T03:02:07.207Z,8.43
2019-05-20T03:04:34.909Z,7.90
2019-05-20T03:07:02.561Z,8.90
2019-05-20T03:09:30.204Z,9.37
2019-05-20T03:11:57.842Z,9.20
2019-05-20T03:14:25.501Z,8.97
2019-05-20T03:16:54.234Z,10.03
2019-05-20T03:19:25.029Z,9.77
2019-05-20T03:21:53.365Z,10.43
2019-05-20T03:24:20.983Z,10.00
2019-05-20T03:26:48.650Z,10.77
2019-05-20T03:29:18.720Z,10.53
2019-05-20T03:31:46.424Z,10.97
2019-05-20T03:34:42.204Z,10.20
2019-05-20T03:36:43.721Z,10.17
2019-05-20T03:39:13.190Z,10.63
2019-05-20T03:41:40.928Z,11.10
2019-05-20T03:44:09.664Z,9.63
2019-05-20T03:46:37.330Z,9.23
2019-05-20T03:49:04.949Z,9.07
2019-05-20T03:51:32.630Z,8.87
2019-05-20T03:54:00.248Z,9.17
2019-05-20T03:56:27.880Z,8.63
2019-05-20T03:58:55.508Z,8.33
2019-05-20T04:01:23.148Z,9.23
2019-05-20T04:03:50.777Z,9.20
2019-05-20T04:06:18.412Z,8.93
2019-05-20T04:08:46.029Z,8.90
2019-05-20T04:11:13.676Z,9.50
2019-05-20T04:13:43.066Z,9.37
2019-05-20T04:16:11.878Z,9.70
2019-05-20T04:18:41.005Z,9.33
2019-05-20T04:21:08.704Z,10.30
2019-05-20T04:23:36.373Z,9.07
2019-05-20T04:26:05.207Z,10.13
2019-05-20T04:28:32.906Z,9.97
2019-05-20T04:31:00.468Z,11.03
2019-05-20T04:33:28.217Z,10.63
2019-05-20T04:35:55.948Z,10.23
2019-05-20T04:38:24.691Z,10.73
2019-05-20T04:40:52.304Z,10.70
2019-05-20T04:43:19.969Z,10.60
2019-05-20T04:45:47.589Z,9.40
2019-05-20T04:48:15.219Z,9.27
2019-05-20T04:50:42.971Z,9.40
2019-05-20T04:53:10.597Z,8.83
2019-05-20T04:55:38.267Z,9.40
2019-05-20T04:58:05.881Z,9.93
2019-05-20T05:00:54.203Z,9.73
2019-05-20T05:03:22.063Z,10.50
2019-05-20T05:05:50.542Z,10.80
2019-05-20T05:08:18.148Z,10.40
2019-05-20T05:10:47.192Z,10.77
2019-05-20T05:13:14.924Z,10.80
2019-05-20T05:15:42.823Z,10.50
2019-05-20T05:18:10.567Z,10.50
2019-05-20T05:20:38.387Z,10.83
2019-05-20T05:23:06.239Z,11.33
2019-05-20T05:25:34.263Z,11.47
2019-05-20T05:28:02.099Z,11.50
2019-05-20T05:30:30.858Z,12.00
2019-05-20T05:32:58.489Z,12.17
2019-05-20T05:35:26.832Z,11.90
2019-05-20T05:37:54.664Z,12.17
2019-05-20T05:40:27.629Z,12.53
2019-05-20T05:42:55.273Z,11.83
2019-05-20T05:45:29.549Z,12.97
2019-05-20T05:47:57.479Z,12.83
2019-05-20T05:50:25.094Z,13.10
2019-05-20T05:52:52.741Z,12.90
2019-05-20T05:55:20.345Z,12.20
2019-05-20T05:57:48.004Z,12.30
2019-05-20T06:00:16.043Z,13.77
2019-05-20T06:02:43.973Z,12.33
2019-05-20T06:05:11.719Z,12.67
2019-05-20T06:07:39.380Z,13.43
2019-05-20T06:10:07.727Z,12.67
2019-05-20T06:12:35.362Z,12.50
2019-05-20T06:15:05.288Z,13.47
2019-05-20T06:17:33.024Z,12.87
2019-05-20T06:20:00.820Z,13.33
2019-05-20T06:22:28.454Z,13.33
2019-05-20T06:24:56.134Z,13.27
2019-05-20T06:27:23.774Z,12.80
2019-05-20T06:29:52.338Z,13.90
2019-05-20T06:32:19.975Z,16.23
2019-05-20T06:34:47.888Z,15.43
2019-05-20T06:37:17.662Z,14.40
2019-05-20T06:39:45.256Z,16.30
2019-05-20T06:42:12.889Z,14.83
2019-05-20T06:44:52.156Z,15.37
2019-05-20T06:47:09.935Z,16.40
2019-05-20T06:49:37.570Z,18.17
2019-05-20T06:52:07.114Z,15.03
2019-05-20T06:54:34.779Z,15.83
2019-05-20T06:57:02.471Z,15.03
2019-05-20T06:59:31.179Z,16.20
2019-05-20T07:01:58.819Z,15.90
2019-05-20T07:04:26.464Z,14.67
2019-05-20T07:06:54.079Z,15.20
2019-05-20T07:09:21.700Z,15.50
2019-05-20T07:11:52.956Z,14.50
2019-05-20T07:14:19.010Z,15.70
2019-05-20T07:16:49.816Z,15.83
2019-05-20T07:19:17.386Z,16.03
2019-05-20T07:21:45.031Z,15.50
2019-05-20T07:24:12.707Z,16.67
2019-05-20T07:26:40.356Z,16.97
2019-05-20T07:29:08.137Z,17.27
2019-05-20T07:31:35.791Z,17.10
2019-05-20T07:34:03.518Z,18.33
2019-05-20T07:36:31.181Z,16.77
2019-05-20T07:38:59.038Z,19.10
2019-05-20T07:41:26.692Z,17.30
2019-05-20T07:43:54.310Z,18.13
2019-05-20T07:46:22.382Z,17.47
2019-05-20T07:48:50.186Z,17.87
2019-05-20T07:51:19.830Z,17.83
2019-05-20T07:53:47.881Z,18.00
2019-05-20T07:56:19.892Z,17.97
2019-05-20T07:58:51.660Z,19.07
2019-05-20T08:01:21.112Z,20.23
2019-05-20T08:03:48.768Z,19.33
2019-05-20T08:06:16.529Z,20.03
2019-05-20T08:08:44.192Z,20.03
2019-05-20T08:11:11.826Z,22.50
2019-05-20T08:13:39.595Z,19.27
2019-05-20T08:16:07.236Z,20.03
2019-05-20T08:18:34.897Z,22.67
2019-05-20T08:21:04.152Z,21.67
2019-05-20T08:23:31.858Z,20.90
2019-05-20T08:25:59.594Z,22.00
2019-05-20T08:28:27.332Z,21.50
2019-05-20T08:30:55.294Z,20.90
2019-05-20T08:33:23.161Z,21.83
2019-05-20T08:35:50.844Z,22.23
2019-05-20T08:38:18.424Z,20.27
2019-05-20T08:40:48.672Z,19.40
2019-05-20T08:43:16.690Z,18.90
2019-05-20T08:45:44.333Z,18.27
2019-05-20T08:48:11.980Z,19.47
2019-05-20T08:50:39.742Z,18.87
2019-05-20T08:53:07.464Z,20.30
2019-05-20T08:55:35.347Z,18.30
2019-05-20T08:58:03.175Z,20.77
2019-05-20T09:00:31.063Z,21.27
2019-05-20T09:02:58.786Z,21.07
2019-05-20T09:05:28.815Z,19.37
2019-05-20T09:08:03.030Z,21.03
2019-05-20T09:10:26.095Z,19.20
2019-05-20T09:12:55.646Z,20.00
2019-05-20T09:15:23.664Z,19.93
2019-05-20T09:17:51.410Z,19.60
2019-05-20T09:20:19.339Z,19.60
2019-05-20T09:22:48.922Z,19.23
2019-05-20T09:25:23.175Z,20.03
2019-05-20T09:27:50.966Z,19.90
2019-05-20T09:30:18.799Z,18.07
2019-05-20T09:32:46.726Z,19.80
2019-05-20T09:35:14.429Z,20.52
2019-05-20T09:37:42.465Z,17.00
2019-05-20T09:40:10.321Z,18.20
2019-05-20T09:42:41.101Z,19.03
2019-05-20T09:45:09.105Z,18.23
2019-05-20T09:47:36.850Z,19.00
2019-05-20T09:50:05.710Z,18.03
2019-05-20T09:52:33.436Z,18.25
2019-05-20T09:55:01.111Z,19.27
2019-05-20T09:57:29.325Z,18.12
2019-05-20T09:59:57.247Z,18.47
2019-05-20T10:02:33.628Z,17.27
2019-05-20T10:04:54.352Z,17.77
2019-05-20T10:07:22.111Z,16.50
2019-05-20T10:09:49.826Z,18.23
2019-05-20T10:12:17.492Z,18.35
2019-05-20T10:14:45.111Z,17.17
2019-05-20T10:17:12.834Z,16.63
2019-05-20T10:19:41.650Z,17.23
2019-05-20T10:22:09.367Z,16.47
2019-05-20T10:24:37.013Z,16.97
2019-05-20T10:27:04.653Z,17.20
2019-05-20T10:29:32.327Z,16.97
2019-05-20T10:31:59.954Z,15.67
2019-05-20T10:34:27.644Z,16.77
2019-05-20T10:36:55.455Z,17.53
2019-05-20T10:39:23.101Z,17.12
2019-05-20T10:41:50.768Z,17.00
2019-05-20T10:44:19.557Z,15.65
2019-05-20T10:46:47.207Z,16.45
2019-05-20T10:49:15.083Z,18.35
2019-05-20T10:51:42.695Z,15.00
2019-05-20T10:54:10.373Z,16.82
2019-05-20T10:56:38.029Z,16.35
2019-05-20T10:59:05.716Z,16.57
2019-05-20T11:01:33.441Z,16.37
2019-05-20T11:04:01.063Z,16.15
2019-05-20T11:06:28.681Z,16.80
2019-05-20T11:08:56.366Z,15.15
2019-05-20T11:11:24.016Z,15.80
2019-05-20T11:13:51.749Z,17.57
2019-05-20T11:16:21.222Z,16.35
2019-05-20T11:18:48.877Z,16.10
2019-05-20T11:21:16.555Z,15.30
2019-05-20T11:23:45.298Z,15.58
2019-05-20T11:26:13.010Z,15.78
2019-05-20T11:28:40.664Z,14.63
2019-05-20T11:31:08.312Z,15.20
2019-05-20T11:33:35.977Z,17.70
2019-05-20T11:36:03.593Z,17.95
2019-05-20T11:38:31.451Z,13.80
2019-05-20T11:40:58.998Z,14.90
2019-05-20T11:43:26.895Z,14.68
2019-05-20T11:45:54.528Z,15.70
2019-05-20T11:48:22.190Z,16.55
2019-05-20T11:50:49.920Z,13.80
2019-05-20T11:53:17.715Z,13.68
2019-05-20T11:55:45.380Z,15.63
2019-05-20T11:58:16.275Z,15.80
2019-05-20T12:00:43.501Z,15.38
2019-05-20T12:03:11.267Z,14.53
2019-05-20T12:05:40.202Z,15.95
2019-05-20T12:08:07.991Z,14.03
2019-05-20T12:10:35.616Z,15.55
2019-05-20T12:13:05.110Z,13.78
2019-05-20T12:15:32.760Z,14.85
2019-05-20T12:18:00.417Z,13.95
2019-05-20T12:20:28.157Z,14.18
2019-05-20T12:22:55.832Z,14.13
2019-05-20T12:25:25.321Z,14.28
2019-05-20T12:27:52.963Z,14.65
2019-05-20T12:30:20.731Z,15.38
2019-05-20T12:32:48.602Z,14.20
2019-05-20T12:35:16.191Z,15.30
2019-05-20T12:37:45.914Z,14.35
2019-05-20T12:40:14.211Z,14.18
2019-05-20T12:42:41.887Z,12.70
2019-05-20T12:45:09.767Z,14.00
2019-05-20T12:47:37.545Z,11.68
2019-05-20T12:50:05.714Z,11.12
2019-05-20T12:52:33.361Z,12.40
2019-05-20T12:55:07.942Z,13.98
2019-05-20T12:57:30.625Z,13.25
2019-05-20T12:59:58.409Z,11.50
2019-05-20T13:02:26.267Z,12.60
2019-05-20T13:04:53.893Z,11.90
2019-05-20T13:07:21.534Z,12.40
2019-05-20T13:09:49.232Z,12.35
2019-05-20T13:12:17.012Z,10.55
2019-05-20T13:14:44.605Z,10.93
2019-05-20T13:17:12.261Z,11.53
2019-05-20T13:19:41.009Z,10.78
2019-05-20T13:22:08.709Z,10.43
2019-05-20T13:24:36.285Z,9.53
2019-05-20T13:27:03.933Z,11.45
2019-05-20T13:29:31.711Z,9.68
2019-05-20T13:31:59.456Z,10.72
2019-05-20T13:34:27.130Z,10.00
2019-05-20T13:36:54.784Z,9.63
2019-05-20T13:39:42.454Z,9.80
2019-05-20T13:42:12.142Z,9.18
2019-05-20T13:44:43.055Z,8.65
2019-05-20T13:47:11.898Z,9.20
2019-05-20T13:49:39.577Z,9.33
2019-05-20T13:52:07.289Z,9.80
2019-05-20T13:54:36.099Z,8.38
2019-05-20T13:57:03.786Z,9.45
2019-05-20T13:59:31.425Z,8.13
2019-05-20T14:02:00.280Z,7.78
2019-05-20T14:04:27.921Z,8.78
2019-05-20T14:06:55.613Z,8.25
2019-05-20T14:09:23.275Z,8.20
2019-05-20T14:11:51.050Z,6.75
2019-05-20T14:14:18.702Z,7.28
2019-05-20T14:16:47.447Z,6.78
2019-05-20T14:19:15.164Z,7.80
2019-05-20T14:21:42.827Z,6.37
2019-05-20T14:24:10.603Z,7.05
2019-05-20T14:26:38.270Z,7.47
2019-05-20T14:29:06.072Z,8.73
2019-05-20T14:31:33.788Z,7.28
2019-05-20T14:34:01.662Z,7.40
2019-05-20T14:36:39.351Z,7.58
2019-05-20T14:38:59.143Z,7.37
2019-05-20T14:41:26.934Z,6.72
2019-05-20T14:43:54.663Z,7.50
2019-05-20T14:46:22.394Z,7.78
2019-05-20T14:48:50.121Z,7.33
2019-05-20T14:51:18.051Z,6.90
2019-05-20T14:53:46.090Z,7.22
2019-05-20T14:56:15.582Z,8.00
2019-05-20T14:58:43.690Z,7.35
2019-05-20T15:01:11.599Z,8.20
2019-05-20T15:03:39.400Z,8.28
2019-05-20T15:06:07.332Z,7.20
2019-05-20T15:08:35.383Z,8.50
2019-05-20T15:11:04.482Z,7.42
2019-05-20T15:13:33.405Z,8.60
2019-05-20T15:16:01.289Z,8.93
2019-05-20T15:18:29.098Z,9.55
2019-05-20T15:20:56.852Z,9.50
2019-05-20T15:23:24.720Z,9.03
2019-05-20T15:25:52.591Z,10.80
2019-05-20T15:28:20.288Z,10.50
2019-05-20T15:30:49.804Z,10.55
2019-05-20T15:33:17.521Z,10.60
2019-05-20T15:35:46.344Z,10.48
2019-05-20T15:38:14.226Z,11.43
2019-05-20T15:40:42.030Z,9.55
2019-05-20T15:43:11.511Z,9.63
2019-05-20T15:45:39.417Z,9.30
2019-05-20T15:48:07.120Z,10.35
2019-05-20T15:50:36.918Z,9.50
2019-05-20T15:53:04.606Z,9.58
2019-05-20T15:55:34.233Z,10.82
2019-05-20T15:58:03.063Z,10.30
2019-05-20T16:00:31.004Z,10.23
2019-05-20T16:02:58.939Z,12.00
2019-05-20T16:05:26.815Z,5.60
2019-05-20T16:07:54.567Z,4.25
2019-05-20T16:10:22.322Z,4.37
2019-05-20T16:12:50.183Z,4.20
2019-05-20T16:15:18.096Z,4.10
2019-05-20T16:17:48.179Z,3.67
2019-05-20T16:20:15.975Z,4.12
2019-05-20T16:22:43.803Z,4.73
2019-05-20T16:25:12.261Z,4.30
2019-05-20T16:27:40.157Z,4.87
2019-05-20T16:30:09.140Z,4.63
2019-05-20T16:32:37.067Z,4.80
2019-05-20T16:35:05.457Z,4.97
2019-05-20T16:37:33.281Z,4.83
2019-05-20T16:40:01.218Z,5.37
2019-05-20T16:42:29.046Z,5.03
2019-05-20T16:44:58.590Z,5.77
2019-05-20T16:47:26.438Z,5.63
2019-05-20T16:49:55.024Z,5.33
2019-05-20T16:52:23.055Z,5.27
2019-05-20T16:54:50.913Z,5.50
2019-05-20T16:57:18.821Z,9.03
2019-05-20T16:59:46.541Z,6.70
2019-05-20T17:02:14.322Z,5.87
2019-05-20T17:04:42.190Z,5.77
2019-05-20T17:07:10.072Z,6.07
2019-05-20T17:09:37.883Z,5.87
2019-05-20T17:12:05.621Z,5.17
2019-05-20T17:14:33.455Z,5.43
2019-05-20T17:17:01.160Z,6.10
2019-05-20T17:19:28.831Z,4.53
2019-05-20T17:21:56.573Z,6.63
2019-05-20T17:24:24.238Z,6.63
2019-05-20T17:26:52.055Z,6.17
2019-05-20T17:29:19.881Z,5.70
2019-05-20T17:31:47.960Z,5.70
2019-05-20T17:34:15.732Z,4.90
2019-05-20T17:36:43.723Z,4.20
2019-05-20T17:39:11.667Z,4.10
2019-05-20T17:41:39.513Z,4.30
2019-05-20T17:44:07.363Z,4.47
2019-05-20T17:46:35.113Z,5.30
2019-05-20T17:49:02.951Z,4.33
2019-05-20T17:51:30.753Z,4.70
2019-05-20T17:53:58.493Z,4.50
2019-05-20T17:56:27.913Z,4.13
2019-05-20T17:58:55.891Z,4.30
2019-05-20T18:01:23.898Z,5.00
2019-05-20T18:03:53.140Z,6.37
2019-05-20T18:06:23.104Z,6.53
2019-05-20T18:08:53.434Z,6.57
2019-05-20T18:11:22.449Z,6.43
2019-05-20T18:13:50.168Z,6.17
2019-05-20T18:16:18.866Z,6.70
2019-05-20T18:18:46.614Z,6.13
2019-05-20T18:21:14.448Z,6.93
2019-05-20T18:23:42.158Z,7.73
2019-05-20T18:26:10.465Z,8.00
2019-05-20T18:28:38.096Z,6.57
2019-05-20T18:31:05.914Z,7.67
2019-05-20T18:33:33.795Z,7.20
2019-05-20T18:36:01.496Z,6.67
2019-05-20T18:38:29.285Z,6.20
2019-05-20T18:40:57.154Z,6.00
2019-05-20T18:43:24.830Z,6.17
2019-05-20T18:45:53.637Z,5.87
2019-05-20T18:48:21.315Z,6.00
2019-05-20T18:50:48.975Z,6.20
2019-05-20T18:53:16.842Z,7.00
2019-05-20T18:55:44.586Z,5.30
2019-05-20T18:58:12.333Z,2.80
2019-05-20T19:00:40.299Z,2.60
2019-05-20T19:03:08.063Z,2.23
2019-05-20T19:05:37.050Z,2.00
2019-05-20T19:08:05.924Z,2.20
2019-05-20T19:10:33.704Z,1.93
2019-05-20T19:13:02.624Z,2.13
2019-05-20T19:15:30.488Z,2.60
2019-05-20T19:17:58.556Z,2.63
2019-05-20T19:20:26.319Z,2.40
2019-05-20T19:22:54.071Z,2.50
2019-05-20T19:25:21.830Z,2.73
2019-05-20T19:27:49.491Z,1.97
2019-05-20T19:30:18.143Z,2.53
2019-05-20T19:32:46.036Z,2.33
2019-05-20T19:35:13.977Z,2.30
2019-05-20T19:37:41.744Z,2.13
2019-05-20T19:40:10.661Z,2.70
2019-05-20T19:42:38.931Z,2.00
2019-05-20T19:45:08.713Z,2.20
2019-05-20T19:47:37.701Z,2.40
2019-05-20T19:50:07.110Z,2.63
2019-05-20T19:52:35.064Z,12.70
2019-05-20T19:55:03.099Z,2.50
2019-05-20T19:57:31.220Z,2.53
2019-05-20T19:59:59.095Z,2.70
2019-05-20T20:02:27.072Z,3.10
2019-05-20T20:04:54.950Z,3.00
2019-05-20T20:07:23.008Z,2.90
2019-05-20T20:10:02.883Z,3.00
2019-05-20T20:12:30.519Z,2.47
2019-05-20T20:14:58.180Z,2.60
2019-05-20T20:17:25.865Z,3.80
2019-05-20T20:19:53.563Z,3.00
2019-05-20T20:22:21.318Z,3.07
2019-05-20T20:24:49.505Z,2.50
2019-05-20T20:27:18.959Z,2.43
2019-05-20T20:29:46.634Z,2.73
2019-05-20T20:32:16.126Z,2.70
2019-05-20T20:34:43.841Z,2.70
2019-05-20T20:37:11.552Z,3.00
2019-05-20T20:39:39.213Z,3.67
2019-05-20T20:42:06.992Z,3.10
2019-05-20T20:44:34.627Z,2.73
2019-05-20T20:47:02.297Z,2.70
2019-05-20T20:49:30.054Z,3.00
2019-05-20T20:51:57.874Z,3.50
2019-05-20T20:54:26.561Z,3.10
2019-05-20T20:56:54.220Z,3.10
2019-05-20T20:59:21.852Z,2.50
2019-05-20T21:01:49.495Z,2.73
2019-05-20T21:04:17.383Z,3.37
2019-05-20T21:06:45.215Z,3.70
2019-05-20T21:09:12.782Z,4.10
2019-05-20T21:11:40.455Z,4.43
2019-05-20T21:14:08.181Z,4.80
2019-05-20T21:16:36.048Z,4.47
2019-05-20T21:19:03.828Z,5.27
2019-05-20T21:21:32.625Z,6.23
2019-05-20T21:24:00.289Z,6.37
2019-05-20T21:26:28.045Z,6.43
2019-05-20T21:28:55.675Z,7.33
2019-05-20T21:31:23.315Z,7.30
2019-05-20T21:33:50.964Z,7.50
2019-05-20T21:36:18.590Z,10.43
2019-05-20T21:38:46.528Z,10.80
2019-05-20T21:41:14.344Z,10.73
2019-05-20T21:43:41.958Z,11.60
2019-05-20T21:46:09.633Z,12.10
2019-05-20T21:48:37.393Z,12.33
2019-05-20T21:51:05.039Z,11.90
2019-05-20T21:53:32.691Z,12.53
2019-05-20T21:56:00.388Z,12.53
2019-05-20T21:58:28.004Z,13.23
2019-05-20T22:00:55.855Z,12.50
2019-05-20T22:03:25.042Z,13.80
2019-05-20T22:05:54.277Z,13.10
2019-05-20T22:08:22.005Z,13.33
2019-05-20T22:10:51.050Z,13.00
2019-05-20T22:13:18.579Z,12.43
2019-05-20T22:15:46.235Z,12.60
2019-05-20T22:18:13.972Z,12.50
2019-05-20T22:20:41.605Z,13.40
2019-05-20T22:23:35.847Z,12.97
2019-05-20T22:26:03.714Z,11.13
2019-05-20T22:28:31.355Z,13.83
2019-05-20T22:30:59.083Z,12.47
2019-05-20T22:33:40.503Z,12.17
2019-05-20T22:35:58.445Z,11.83
2019-05-20T22:38:26.147Z,13.07
2019-05-20T22:40:53.829Z,13.53
2019-05-20T22:43:21.506Z,12.40
2019-05-20T22:45:49.237Z,13.80
2019-05-20T22:48:16.971Z,12.70
2019-05-20T22:50:44.616Z,12.10
2019-05-20T22:53:12.297Z,13.67
2019-05-20T22:55:39.913Z,13.83
2019-05-20T22:58:07.681Z,13.00
2019-05-20T23:00:35.391Z,13.07
2019-05-20T23:03:03.041Z,13.97
2019-05-20T23:05:30.669Z,14.80
2019-05-20T23:07:59.325Z,13.60
2019-05-20T23:10:26.968Z,14.20
2019-05-20T23:12:54.642Z,12.87
2019-05-20T23:15:22.356Z,14.67
2019-05-20T23:17:50.077Z,14.07
2019-05-20T23:20:18.722Z,13.50
2019-05-20T23:22:46.440Z,13.30
2019-05-20T23:25:14.145Z,12.90
2019-05-20T23:27:41.782Z,12.93
2019-05-20T23:30:10.049Z,13.40
2019-05-20T23:32:37.661Z,13.70
2019-05-20T23:35:05.741Z,12.93
2019-05-20T23:37:33.307Z,13.50
2019-05-20T23:40:00.964Z,13.47
2019-05-20T23:42:28.606Z,13.80
2019-05-20T23:44:56.284Z,14.13
2019-05-20T23:47:23.918Z,14.17
2019-05-20T23:49:51.569Z,13.47
2019-05-20T23:52:19.236Z,12.97
2019-05-20T23:54:46.978Z,14.63
2019-05-20T23:57:14.804Z,14.60
2019-05-20T23:59:44.248Z,14.27
